sensor_id;sensor_type;location;lat;lon;timestamp;temperature;humidity
10901;DHT22;5503;53.208;10.392;2022-09-01T00:00:44;13.10;96.20
10901;DHT22;5503;53.208;10.392;2022-09-01T00:05:41;13.10;97.50
10901;DHT22;5503;53.208;10.392;2022-09-01T00:08:11;13.10;95.90
10901;DHT22;5503;53.208;10.392;2022-09-01T00:10:38;13.10;96.40
10901;DHT22;5503;53.208;10.392;2022-09-01T00:13:06;13.00;97.00
10901;DHT22;5503;53.208;10.392;2022-09-01T00:22:57;12.90;98.40
10901;DHT22;5503;53.208;10.392;2022-09-01T00:25:25;12.90;95.60
10901;DHT22;5503;53.208;10.392;2022-09-01T00:27:53;12.80;98.20
10901;DHT22;5503;53.208;10.392;2022-09-01T00:30:24;12.80;99.10
10901;DHT22;5503;53.208;10.392;2022-09-01T00:35:19;12.70;99.20
10901;DHT22;5503;53.208;10.392;2022-09-01T00:40:16;12.70;99.90
10901;DHT22;5503;53.208;10.392;2022-09-01T00:42:45;12.60;99.90
10901;DHT22;5503;53.208;10.392;2022-09-01T00:45:13;12.60;99.90
10901;DHT22;5503;53.208;10.392;2022-09-01T00:47:41;12.60;99.90
10901;DHT22;5503;53.208;10.392;2022-09-01T00:50:09;12.60;99.90
10901;DHT22;5503;53.208;10.392;2022-09-01T00:52:42;12.60;99.90
10901;DHT22;5503;53.208;10.392;2022-09-01T00:55:15;12.60;99.90
10901;DHT22;5503;53.208;10.392;2022-09-01T00:57:43;12.50;99.90
10901;DHT22;5503;53.208;10.392;2022-09-01T01:00:14;12.50;99.90
10901;DHT22;5503;53.208;10.392;2022-09-01T01:02:42;12.40;99.90
10901;DHT22;5503;53.208;10.392;2022-09-01T01:05:10;12.40;99.90
10901;DHT22;5503;53.208;10.392;2022-09-01T01:10:08;12.40;99.90
10901;DHT22;5503;53.208;10.392;2022-09-01T01:12:38;12.30;99.90
10901;DHT22;5503;53.208;10.392;2022-09-01T01:15:09;12.30;99.90
10901;DHT22;5503;53.208;10.392;2022-09-01T01:20:05;11.10;99.90
10901;DHT22;5503;53.208;10.392;2022-09-01T01:22:57;12.20;99.90
10901;DHT22;5503;53.208;10.392;2022-09-01T01:25:34;12.20;99.90
10901;DHT22;5503;53.208;10.392;2022-09-01T01:28:05;12.10;99.90
10901;DHT22;5503;53.208;10.392;2022-09-01T01:35:29;12.10;99.90
10901;DHT22;5503;53.208;10.392;2022-09-01T01:37:56;12.10;99.90
10901;DHT22;5503;53.208;10.392;2022-09-01T01:42:52;11.90;99.90
10901;DHT22;5503;53.208;10.392;2022-09-01T01:45:22;11.90;99.90
10901;DHT22;5503;53.208;10.392;2022-09-01T01:47:51;11.90;99.90
10901;DHT22;5503;53.208;10.392;2022-09-01T01:50:19;10.90;99.90
10901;DHT22;5503;53.208;10.392;2022-09-01T01:52:46;11.90;99.90
10901;DHT22;5503;53.208;10.392;2022-09-01T01:55:13;11.90;99.90
10901;DHT22;5503;53.208;10.392;2022-09-01T01:57:44;11.80;99.90
10901;DHT22;5503;53.208;10.392;2022-09-01T02:00:17;11.80;99.90
10901;DHT22;5503;53.208;10.392;2022-09-01T02:02:45;11.80;99.90
10901;DHT22;5503;53.208;10.392;2022-09-01T02:05:17;11.80;99.90
10901;DHT22;5503;53.208;10.392;2022-09-01T02:07:46;11.80;99.90
10901;DHT22;5503;53.208;10.392;2022-09-01T02:12:50;11.80;99.90
10901;DHT22;5503;53.208;10.392;2022-09-01T02:15:19;12.40;99.90
10901;DHT22;5503;53.208;10.392;2022-09-01T02:20:15;11.80;99.90
10901;DHT22;5503;53.208;10.392;2022-09-01T02:22:42;9.20;99.90
10901;DHT22;5503;53.208;10.392;2022-09-01T02:25:11;11.60;99.90
10901;DHT22;5503;53.208;10.392;2022-09-01T02:27:41;11.80;99.90
10901;DHT22;5503;53.208;10.392;2022-09-01T02:30:09;11.50;99.90
10901;DHT22;5503;53.208;10.392;2022-09-01T02:32:38;11.40;99.90
10901;DHT22;5503;53.208;10.392;2022-09-01T02:35:08;11.40;99.90
10901;DHT22;5503;53.208;10.392;2022-09-01T02:37:37;11.40;99.90
10901;DHT22;5503;53.208;10.392;2022-09-01T02:40:07;11.40;99.90
10901;DHT22;5503;53.208;10.392;2022-09-01T02:42:37;11.40;99.90
10901;DHT22;5503;53.208;10.392;2022-09-01T02:45:08;11.30;99.90
10901;DHT22;5503;53.208;10.392;2022-09-01T02:47:43;11.30;99.90
10901;DHT22;5503;53.208;10.392;2022-09-01T02:50:12;11.30;99.90
10901;DHT22;5503;53.208;10.392;2022-09-01T02:52:43;11.30;99.90
10901;DHT22;5503;53.208;10.392;2022-09-01T02:55:13;11.20;99.90
10901;DHT22;5503;53.208;10.392;2022-09-01T02:57:47;11.20;99.90
10901;DHT22;5503;53.208;10.392;2022-09-01T03:00:16;11.20;99.90
10901;DHT22;5503;53.208;10.392;2022-09-01T03:02:51;11.20;99.90
10901;DHT22;5503;53.208;10.392;2022-09-01T03:05:19;11.10;99.90
10901;DHT22;5503;53.208;10.392;2022-09-01T03:07:51;11.00;99.90
10901;DHT22;5503;53.208;10.392;2022-09-01T03:20:15;10.90;99.90
10901;DHT22;5503;53.208;10.392;2022-09-01T03:22:46;7.70;99.90
10901;DHT22;5503;53.208;10.392;2022-09-01T03:32:36;10.80;99.90
10901;DHT22;5503;53.208;10.392;2022-09-01T03:35:03;10.80;99.90
10901;DHT22;5503;53.208;10.392;2022-09-01T03:37:32;10.80;99.90
10901;DHT22;5503;53.208;10.392;2022-09-01T03:40:02;10.70;99.90
10901;DHT22;5503;53.208;10.392;2022-09-01T03:42:29;10.00;99.90
10901;DHT22;5503;53.208;10.392;2022-09-01T03:44:57;11.10;99.90
10901;DHT22;5503;53.208;10.392;2022-09-01T03:47:24;10.60;99.90
10901;DHT22;5503;53.208;10.392;2022-09-01T03:54:50;10.50;99.90
10901;DHT22;5503;53.208;10.392;2022-09-01T03:57:18;10.50;99.90
10901;DHT22;5503;53.208;10.392;2022-09-01T03:59:45;10.50;99.90
10901;DHT22;5503;53.208;10.392;2022-09-01T04:04:39;10.30;99.90
10901;DHT22;5503;53.208;10.392;2022-09-01T04:07:06;10.30;99.90
10901;DHT22;5503;53.208;10.392;2022-09-01T04:12:05;10.20;99.90
10901;DHT22;5503;53.208;10.392;2022-09-01T04:19:45;10.10;99.90
10901;DHT22;5503;53.208;10.392;2022-09-01T04:22:13;10.00;99.90
10901;DHT22;5503;53.208;10.392;2022-09-01T04:24:42;10.00;99.90
10901;DHT22;5503;53.208;10.392;2022-09-01T04:34:38;10.00;99.90
10901;DHT22;5503;53.208;10.392;2022-09-01T04:37:08;10.00;99.90
10901;DHT22;5503;53.208;10.392;2022-09-01T04:44:35;9.90;99.90
10901;DHT22;5503;53.208;10.392;2022-09-01T04:49:30;9.90;99.90
10901;DHT22;5503;53.208;10.392;2022-09-01T04:51:58;9.90;99.90
10901;DHT22;5503;53.208;10.392;2022-09-01T04:54:25;9.90;99.90
10901;DHT22;5503;53.208;10.392;2022-09-01T04:59:21;10.00;99.90
10901;DHT22;5503;53.208;10.392;2022-09-01T05:01:50;10.00;99.90
10901;DHT22;5503;53.208;10.392;2022-09-01T05:04:22;10.00;99.90
10901;DHT22;5503;53.208;10.392;2022-09-01T05:06:51;10.00;99.90
10901;DHT22;5503;53.208;10.392;2022-09-01T05:09:20;9.80;99.90
10901;DHT22;5503;53.208;10.392;2022-09-01T05:14:18;10.00;99.90
10901;DHT22;5503;53.208;10.392;2022-09-01T05:19:17;10.00;99.90
10901;DHT22;5503;53.208;10.392;2022-09-01T05:21:46;10.00;99.90
10901;DHT22;5503;53.208;10.392;2022-09-01T05:24:16;10.00;99.90
10901;DHT22;5503;53.208;10.392;2022-09-01T05:26:44;10.00;99.90
10901;DHT22;5503;53.208;10.392;2022-09-01T05:29:15;10.10;99.90
10901;DHT22;5503;53.208;10.392;2022-09-01T05:31:45;10.50;99.90
10901;DHT22;5503;53.208;10.392;2022-09-01T05:34:13;10.10;99.90
10901;DHT22;5503;53.208;10.392;2022-09-01T05:36:46;11.90;99.90
10901;DHT22;5503;53.208;10.392;2022-09-01T05:39:15;10.30;99.90
10901;DHT22;5503;53.208;10.392;2022-09-01T05:41:42;10.30;99.90
10901;DHT22;5503;53.208;10.392;2022-09-01T05:44:11;10.40;99.90
10901;DHT22;5503;53.208;10.392;2022-09-01T05:46:39;10.40;99.90
10901;DHT22;5503;53.208;10.392;2022-09-01T05:49:07;10.60;99.90
10901;DHT22;5503;53.208;10.392;2022-09-01T05:51:40;10.70;99.90
10901;DHT22;5503;53.208;10.392;2022-09-01T05:54:10;10.70;99.90
10901;DHT22;5503;53.208;10.392;2022-09-01T05:59:06;11.00;99.90
10901;DHT22;5503;53.208;10.392;2022-09-01T06:01:35;8.40;99.90
10901;DHT22;5503;53.208;10.392;2022-09-01T06:06:37;11.20;99.90
10901;DHT22;5503;53.208;10.392;2022-09-01T06:09:06;11.20;99.90
10901;DHT22;5503;53.208;10.392;2022-09-01T06:11:36;11.40;99.90
10901;DHT22;5503;53.208;10.392;2022-09-01T06:14:04;11.40;99.90
10901;DHT22;5503;53.208;10.392;2022-09-01T06:16:33;11.50;99.90
10901;DHT22;5503;53.208;10.392;2022-09-01T06:19:00;13.20;99.90
10901;DHT22;5503;53.208;10.392;2022-09-01T06:21:28;12.00;99.90
10901;DHT22;5503;53.208;10.392;2022-09-01T06:23:56;12.40;99.90
10901;DHT22;5503;53.208;10.392;2022-09-01T06:26:26;12.40;99.90
10901;DHT22;5503;53.208;10.392;2022-09-01T06:28:55;14.10;99.90
10901;DHT22;5503;53.208;10.392;2022-09-01T06:31:24;12.70;99.90
10901;DHT22;5503;53.208;10.392;2022-09-01T06:33:53;12.80;99.90
10901;DHT22;5503;53.208;10.392;2022-09-01T06:36:22;13.00;99.90
10901;DHT22;5503;53.208;10.392;2022-09-01T06:38:51;13.00;99.90
10901;DHT22;5503;53.208;10.392;2022-09-01T06:41:21;13.30;99.90
10901;DHT22;5503;53.208;10.392;2022-09-01T06:43:49;15.60;99.90
10901;DHT22;5503;53.208;10.392;2022-09-01T06:46:18;13.40;99.90
10901;DHT22;5503;53.208;10.392;2022-09-01T06:48:46;13.50;99.90
10901;DHT22;5503;53.208;10.392;2022-09-01T06:51:15;13.60;99.90
10901;DHT22;5503;53.208;10.392;2022-09-01T06:53:43;13.90;99.90
10901;DHT22;5503;53.208;10.392;2022-09-01T06:56:11;13.90;99.90
10901;DHT22;5503;53.208;10.392;2022-09-01T06:58:40;14.00;99.90
10901;DHT22;5503;53.208;10.392;2022-09-01T07:01:10;14.30;99.90
10901;DHT22;5503;53.208;10.392;2022-09-01T07:03:41;14.30;99.90
10901;DHT22;5503;53.208;10.392;2022-09-01T07:06:09;14.30;99.90
10901;DHT22;5503;53.208;10.392;2022-09-01T07:08:36;14.50;99.90
10901;DHT22;5503;53.208;10.392;2022-09-01T07:11:05;14.60;99.90
10901;DHT22;5503;53.208;10.392;2022-09-01T07:13:33;14.90;99.90
10901;DHT22;5503;53.208;10.392;2022-09-01T07:16:02;14.80;99.90
10901;DHT22;5503;53.208;10.392;2022-09-01T07:18:32;15.00;99.90
10901;DHT22;5503;53.208;10.392;2022-09-01T07:21:01;15.10;99.90
10901;DHT22;5503;53.208;10.392;2022-09-01T07:23:35;15.20;99.90
10901;DHT22;5503;53.208;10.392;2022-09-01T07:26:07;15.30;99.90
10901;DHT22;5503;53.208;10.392;2022-09-01T07:28:35;15.50;99.30
10901;DHT22;5503;53.208;10.392;2022-09-01T07:31:02;16.10;99.60
10901;DHT22;5503;53.208;10.392;2022-09-01T07:33:30;15.70;92.70
10901;DHT22;5503;53.208;10.392;2022-09-01T07:35:59;15.80;81.30
10901;DHT22;5503;53.208;10.392;2022-09-01T07:38:29;16.00;69.00
10901;DHT22;5503;53.208;10.392;2022-09-01T07:40:57;16.10;53.50
10901;DHT22;5503;53.208;10.392;2022-09-01T07:43:28;16.30;30.70
10901;DHT22;5503;53.208;10.392;2022-09-01T07:45:57;16.60;15.80
10901;DHT22;5503;53.208;10.392;2022-09-01T07:48:26;16.60;16.40
10901;DHT22;5503;53.208;10.392;2022-09-01T07:50:54;16.70;12.50
10901;DHT22;5503;53.208;10.392;2022-09-01T07:53:25;16.80;18.80
10901;DHT22;5503;53.208;10.392;2022-09-01T07:55:55;16.60;10.70
10901;DHT22;5503;53.208;10.392;2022-09-01T07:58:24;17.10;7.80
10901;DHT22;5503;53.208;10.392;2022-09-01T08:03:21;17.20;1.40
10901;DHT22;5503;53.208;10.392;2022-09-01T08:05:49;17.20;2.20
10901;DHT22;5503;53.208;10.392;2022-09-01T08:13:26;17.40;1.20
10901;DHT22;5503;53.208;10.392;2022-09-01T08:15:53;17.50;2.20
10901;DHT22;5503;53.208;10.392;2022-09-01T08:18:20;17.60;12.70
10901;DHT22;5503;53.208;10.392;2022-09-01T08:20:47;17.80;14.70
10901;DHT22;5503;53.208;10.392;2022-09-01T08:23:16;18.10;1.00
10901;DHT22;5503;53.208;10.392;2022-09-01T08:25:46;18.20;1.00
10901;DHT22;5503;53.208;10.392;2022-09-01T08:28:13;19.40;1.00
10901;DHT22;5503;53.208;10.392;2022-09-01T08:30:43;18.50;1.00
10901;DHT22;5503;53.208;10.392;2022-09-01T08:33:11;18.70;1.00
10901;DHT22;5503;53.208;10.392;2022-09-01T08:38:06;20.60;1.00
10901;DHT22;5503;53.208;10.392;2022-09-01T08:43:11;18.70;1.00
10901;DHT22;5503;53.208;10.392;2022-09-01T08:45:46;18.70;1.00
10901;DHT22;5503;53.208;10.392;2022-09-01T08:48:18;18.90;1.00
10901;DHT22;5503;53.208;10.392;2022-09-01T08:50:51;19.00;1.00
10901;DHT22;5503;53.208;10.392;2022-09-01T08:53:26;19.10;1.00
10901;DHT22;5503;53.208;10.392;2022-09-01T08:58:30;19.00;1.00
10901;DHT22;5503;53.208;10.392;2022-09-01T09:01:02;19.10;1.00
10901;DHT22;5503;53.208;10.392;2022-09-01T09:03:37;19.20;1.00
10901;DHT22;5503;53.208;10.392;2022-09-01T09:06:13;19.20;1.00
10901;DHT22;5503;53.208;10.392;2022-09-01T09:08:51;19.30;1.00
10901;DHT22;5503;53.208;10.392;2022-09-01T09:14:36;19.30;1.00
10901;DHT22;5503;53.208;10.392;2022-09-01T09:17:08;19.40;1.00
10901;DHT22;5503;53.208;10.392;2022-09-01T09:19:38;19.60;1.00
10901;DHT22;5503;53.208;10.392;2022-09-01T09:22:08;19.70;1.00
10901;DHT22;5503;53.208;10.392;2022-09-01T09:24:42;19.70;1.00
10901;DHT22;5503;53.208;10.392;2022-09-01T09:27:23;19.90;1.00
10901;DHT22;5503;53.208;10.392;2022-09-01T09:29:54;20.20;1.00
10901;DHT22;5503;53.208;10.392;2022-09-01T09:32:23;20.50;1.00
10901;DHT22;5503;53.208;10.392;2022-09-01T09:34:51;20.70;1.00
10901;DHT22;5503;53.208;10.392;2022-09-01T09:37:26;20.70;1.00
10901;DHT22;5503;53.208;10.392;2022-09-01T09:40:12;20.50;1.00
10901;DHT22;5503;53.208;10.392;2022-09-01T09:42:42;20.50;1.00
10901;DHT22;5503;53.208;10.392;2022-09-01T09:45:29;20.80;1.00
10901;DHT22;5503;53.208;10.392;2022-09-01T09:50:28;20.80;1.00
10901;DHT22;5503;53.208;10.392;2022-09-01T09:53:17;20.80;1.00
10901;DHT22;5503;53.208;10.392;2022-09-01T09:55:58;20.90;1.00
10901;DHT22;5503;53.208;10.392;2022-09-01T09:58:30;21.30;1.00
10901;DHT22;5503;53.208;10.392;2022-09-01T10:01:07;21.50;1.00
10901;DHT22;5503;53.208;10.392;2022-09-01T10:03:40;21.80;1.00
10901;DHT22;5503;53.208;10.392;2022-09-01T10:06:13;21.90;1.00
10901;DHT22;5503;53.208;10.392;2022-09-01T10:08:42;21.90;1.00
10901;DHT22;5503;53.208;10.392;2022-09-01T10:11:26;21.90;1.00
10901;DHT22;5503;53.208;10.392;2022-09-01T10:13:54;22.10;1.00
10901;DHT22;5503;53.208;10.392;2022-09-01T10:16:28;22.10;1.00
10901;DHT22;5503;53.208;10.392;2022-09-01T10:18:57;22.10;1.00
10901;DHT22;5503;53.208;10.392;2022-09-01T10:21:33;21.80;1.00
10901;DHT22;5503;53.208;10.392;2022-09-01T10:24:08;21.60;1.00
10901;DHT22;5503;53.208;10.392;2022-09-01T10:26:37;21.50;1.00
10901;DHT22;5503;53.208;10.392;2022-09-01T10:29:08;21.40;1.00
10901;DHT22;5503;53.208;10.392;2022-09-01T10:31:39;21.50;1.00
10901;DHT22;5503;53.208;10.392;2022-09-01T10:34:08;21.70;1.00
10901;DHT22;5503;53.208;10.392;2022-09-01T10:36:41;21.80;1.00
10901;DHT22;5503;53.208;10.392;2022-09-01T10:41:53;21.70;1.00
10901;DHT22;5503;53.208;10.392;2022-09-01T10:44:23;21.40;1.00
10901;DHT22;5503;53.208;10.392;2022-09-01T10:47:02;21.50;1.00
10901;DHT22;5503;53.208;10.392;2022-09-01T10:49:58;21.30;1.00
10901;DHT22;5503;53.208;10.392;2022-09-01T10:52:53;21.30;1.00
10901;DHT22;5503;53.208;10.392;2022-09-01T10:55:23;21.20;1.00
10901;DHT22;5503;53.208;10.392;2022-09-01T10:58:05;21.20;1.00
10901;DHT22;5503;53.208;10.392;2022-09-01T11:01:00;21.30;1.00
10901;DHT22;5503;53.208;10.392;2022-09-01T11:03:48;21.60;1.00
10901;DHT22;5503;53.208;10.392;2022-09-01T11:06:54;22.00;1.00
10901;DHT22;5503;53.208;10.392;2022-09-01T11:09:25;22.10;1.00
10901;DHT22;5503;53.208;10.392;2022-09-01T11:14:49;21.80;1.00
10901;DHT22;5503;53.208;10.392;2022-09-01T11:17:21;21.90;1.00
10901;DHT22;5503;53.208;10.392;2022-09-01T11:20:03;22.60;1.00
10901;DHT22;5503;53.208;10.392;2022-09-01T11:22:36;22.60;1.00
10901;DHT22;5503;53.208;10.392;2022-09-01T11:25:11;22.70;1.00
10901;DHT22;5503;53.208;10.392;2022-09-01T11:28:03;22.70;1.00
10901;DHT22;5503;53.208;10.392;2022-09-01T11:30:40;22.90;1.00
10901;DHT22;5503;53.208;10.392;2022-09-01T11:33:42;23.00;1.00
10901;DHT22;5503;53.208;10.392;2022-09-01T11:36:17;22.90;1.00
10901;DHT22;5503;53.208;10.392;2022-09-01T11:38:50;22.90;1.00
10901;DHT22;5503;53.208;10.392;2022-09-01T11:41:23;22.70;1.00
10901;DHT22;5503;53.208;10.392;2022-09-01T11:43:55;22.40;1.00
10901;DHT22;5503;53.208;10.392;2022-09-01T11:46:29;22.10;1.00
10901;DHT22;5503;53.208;10.392;2022-09-01T11:49:02;22.00;1.00
10901;DHT22;5503;53.208;10.392;2022-09-01T11:51:41;22.00;1.00
10901;DHT22;5503;53.208;10.392;2022-09-01T11:54:08;22.10;1.00
10901;DHT22;5503;53.208;10.392;2022-09-01T11:56:35;22.20;1.00
10901;DHT22;5503;53.208;10.392;2022-09-01T11:59:02;22.40;1.00
10901;DHT22;5503;53.208;10.392;2022-09-01T12:01:33;22.50;1.00
10901;DHT22;5503;53.208;10.392;2022-09-01T12:04:19;22.50;1.00
10901;DHT22;5503;53.208;10.392;2022-09-01T12:06:54;22.30;1.00
10901;DHT22;5503;53.208;10.392;2022-09-01T12:09:31;19.30;1.00
10901;DHT22;5503;53.208;10.392;2022-09-01T12:19:35;21.30;1.00
10901;DHT22;5503;53.208;10.392;2022-09-01T12:22:13;21.10;1.00
10901;DHT22;5503;53.208;10.392;2022-09-01T12:24:44;21.10;1.00
10901;DHT22;5503;53.208;10.392;2022-09-01T12:27:11;21.30;1.00
10901;DHT22;5503;53.208;10.392;2022-09-01T12:29:39;21.50;1.00
10901;DHT22;5503;53.208;10.392;2022-09-01T12:32:08;21.70;1.00
10901;DHT22;5503;53.208;10.392;2022-09-01T12:34:38;23.10;1.00
10901;DHT22;5503;53.208;10.392;2022-09-01T12:37:10;21.30;1.00
10901;DHT22;5503;53.208;10.392;2022-09-01T12:39:38;21.30;1.00
10901;DHT22;5503;53.208;10.392;2022-09-01T12:42:10;21.20;1.00
10901;DHT22;5503;53.208;10.392;2022-09-01T12:44:47;21.20;1.00
10901;DHT22;5503;53.208;10.392;2022-09-01T12:47:45;21.10;1.00
10901;DHT22;5503;53.208;10.392;2022-09-01T12:50:42;24.40;1.00
10901;DHT22;5503;53.208;10.392;2022-09-01T12:53:17;24.20;1.00
10901;DHT22;5503;53.208;10.392;2022-09-01T12:56:04;21.80;1.00
10901;DHT22;5503;53.208;10.392;2022-09-01T12:58:32;21.80;1.00
10901;DHT22;5503;53.208;10.392;2022-09-01T13:01:02;21.00;1.00
10901;DHT22;5503;53.208;10.392;2022-09-01T13:06:00;21.40;1.00
10901;DHT22;5503;53.208;10.392;2022-09-01T13:08:29;21.30;1.00
10901;DHT22;5503;53.208;10.392;2022-09-01T13:11:02;21.30;1.00
10901;DHT22;5503;53.208;10.392;2022-09-01T13:13:30;21.20;1.00
10901;DHT22;5503;53.208;10.392;2022-09-01T13:16:00;21.20;1.00
10901;DHT22;5503;53.208;10.392;2022-09-01T13:18:28;21.20;1.00
10901;DHT22;5503;53.208;10.392;2022-09-01T13:23:25;21.40;1.00
10901;DHT22;5503;53.208;10.392;2022-09-01T13:25:55;17.90;1.00
10901;DHT22;5503;53.208;10.392;2022-09-01T13:28:24;21.80;1.00
10901;DHT22;5503;53.208;10.392;2022-09-01T13:30:56;21.80;1.00
10901;DHT22;5503;53.208;10.392;2022-09-01T13:33:24;22.00;1.00
10901;DHT22;5503;53.208;10.392;2022-09-01T13:35:52;22.10;1.00
10901;DHT22;5503;53.208;10.392;2022-09-01T13:38:23;22.30;1.00
10901;DHT22;5503;53.208;10.392;2022-09-01T13:40:57;22.40;1.00
10901;DHT22;5503;53.208;10.392;2022-09-01T13:43:28;22.30;1.00
10901;DHT22;5503;53.208;10.392;2022-09-01T13:45:56;22.30;1.00
10901;DHT22;5503;53.208;10.392;2022-09-01T13:48:23;22.20;1.00
10901;DHT22;5503;53.208;10.392;2022-09-01T13:50:51;22.10;1.00
10901;DHT22;5503;53.208;10.392;2022-09-01T13:53:18;22.10;1.00
10901;DHT22;5503;53.208;10.392;2022-09-01T13:55:47;23.70;1.00
10901;DHT22;5503;53.208;10.392;2022-09-01T14:00:45;21.70;1.00
10901;DHT22;5503;53.208;10.392;2022-09-01T14:03:15;21.60;1.00
10901;DHT22;5503;53.208;10.392;2022-09-01T14:05:47;21.60;1.00
10901;DHT22;5503;53.208;10.392;2022-09-01T14:08:16;21.60;1.00
10901;DHT22;5503;53.208;10.392;2022-09-01T14:10:45;21.70;1.00
10901;DHT22;5503;53.208;10.392;2022-09-01T14:13:14;21.70;1.00
10901;DHT22;5503;53.208;10.392;2022-09-01T14:15:42;21.90;1.00
10901;DHT22;5503;53.208;10.392;2022-09-01T14:18:11;22.00;1.00
10901;DHT22;5503;53.208;10.392;2022-09-01T14:20:42;22.00;1.00
10901;DHT22;5503;53.208;10.392;2022-09-01T14:23:09;22.00;1.00
10901;DHT22;5503;53.208;10.392;2022-09-01T14:25:40;21.90;1.00
10901;DHT22;5503;53.208;10.392;2022-09-01T14:28:07;21.90;1.00
10901;DHT22;5503;53.208;10.392;2022-09-01T14:30:35;21.80;1.00
10901;DHT22;5503;53.208;10.392;2022-09-01T14:33:03;21.70;1.00
10901;DHT22;5503;53.208;10.392;2022-09-01T14:35:32;24.40;1.00
10901;DHT22;5503;53.208;10.392;2022-09-01T14:38:00;20.00;1.00
10901;DHT22;5503;53.208;10.392;2022-09-01T14:40:30;21.50;1.00
10901;DHT22;5503;53.208;10.392;2022-09-01T14:42:56;21.40;1.00
10901;DHT22;5503;53.208;10.392;2022-09-01T14:45:26;21.40;1.00
10901;DHT22;5503;53.208;10.392;2022-09-01T14:47:56;21.30;1.00
10901;DHT22;5503;53.208;10.392;2022-09-01T14:50:25;21.20;1.00
10901;DHT22;5503;53.208;10.392;2022-09-01T14:52:55;21.10;1.00
10901;DHT22;5503;53.208;10.392;2022-09-01T14:55:24;21.10;1.00
10901;DHT22;5503;53.208;10.392;2022-09-01T14:57:53;21.10;1.00
10901;DHT22;5503;53.208;10.392;2022-09-01T15:00:21;21.10;1.00
10901;DHT22;5503;53.208;10.392;2022-09-01T15:02:50;21.10;1.00
10901;DHT22;5503;53.208;10.392;2022-09-01T15:05:20;21.20;1.00
10901;DHT22;5503;53.208;10.392;2022-09-01T15:07:48;21.20;1.00
10901;DHT22;5503;53.208;10.392;2022-09-01T15:10:17;21.20;1.00
10901;DHT22;5503;53.208;10.392;2022-09-01T15:12:45;21.20;1.00
10901;DHT22;5503;53.208;10.392;2022-09-01T15:15:15;21.20;1.00
10901;DHT22;5503;53.208;10.392;2022-09-01T15:17:42;21.20;1.00
10901;DHT22;5503;53.208;10.392;2022-09-01T15:20:09;20.40;1.00
10901;DHT22;5503;53.208;10.392;2022-09-01T15:22:55;21.00;1.00
10901;DHT22;5503;53.208;10.392;2022-09-01T15:25:23;21.20;1.00
10901;DHT22;5503;53.208;10.392;2022-09-01T15:27:50;21.30;1.00
10901;DHT22;5503;53.208;10.392;2022-09-01T15:30:19;21.30;1.00
10901;DHT22;5503;53.208;10.392;2022-09-01T15:32:48;21.50;1.00
10901;DHT22;5503;53.208;10.392;2022-09-01T15:35:16;21.50;1.00
10901;DHT22;5503;53.208;10.392;2022-09-01T15:37:45;21.60;1.00
10901;DHT22;5503;53.208;10.392;2022-09-01T15:40:15;21.60;1.00
10901;DHT22;5503;53.208;10.392;2022-09-01T15:42:43;21.50;1.00
10901;DHT22;5503;53.208;10.392;2022-09-01T15:45:12;21.40;1.00
10901;DHT22;5503;53.208;10.392;2022-09-01T15:47:40;21.20;1.00
10901;DHT22;5503;53.208;10.392;2022-09-01T15:50:09;21.10;1.00
10901;DHT22;5503;53.208;10.392;2022-09-01T15:52:46;21.10;1.00
10901;DHT22;5503;53.208;10.392;2022-09-01T15:55:16;21.20;1.00
10901;DHT22;5503;53.208;10.392;2022-09-01T15:57:43;21.00;1.00
10901;DHT22;5503;53.208;10.392;2022-09-01T16:00:13;19.20;1.00
10901;DHT22;5503;53.208;10.392;2022-09-01T16:02:40;20.90;1.00
10901;DHT22;5503;53.208;10.392;2022-09-01T16:05:14;20.80;1.00
10901;DHT22;5503;53.208;10.392;2022-09-01T16:07:44;19.70;1.00
10901;DHT22;5503;53.208;10.392;2022-09-01T16:10:15;20.60;1.00
10901;DHT22;5503;53.208;10.392;2022-09-01T16:12:49;20.60;1.00
10901;DHT22;5503;53.208;10.392;2022-09-01T16:15:22;20.30;1.00
10901;DHT22;5503;53.208;10.392;2022-09-01T16:18:14;20.50;1.00
10901;DHT22;5503;53.208;10.392;2022-09-01T16:20:52;20.60;1.00
10901;DHT22;5503;53.208;10.392;2022-09-01T16:23:40;20.50;1.00
10901;DHT22;5503;53.208;10.392;2022-09-01T16:26:13;20.50;1.00
10901;DHT22;5503;53.208;10.392;2022-09-01T16:29:05;20.50;1.00
10901;DHT22;5503;53.208;10.392;2022-09-01T16:37:21;20.60;1.00
10901;DHT22;5503;53.208;10.392;2022-09-01T16:39:55;20.70;1.00
10901;DHT22;5503;53.208;10.392;2022-09-01T16:42:46;20.70;1.00
10901;DHT22;5503;53.208;10.392;2022-09-01T16:46:15;20.70;1.00
10901;DHT22;5503;53.208;10.392;2022-09-01T16:48:29;20.70;1.00
10901;DHT22;5503;53.208;10.392;2022-09-01T16:51:02;20.70;1.00
10901;DHT22;5503;53.208;10.392;2022-09-01T16:53:53;20.70;1.00
10901;DHT22;5503;53.208;10.392;2022-09-01T16:56:44;20.70;1.00
10901;DHT22;5503;53.208;10.392;2022-09-01T16:59:39;20.70;1.00
10901;DHT22;5503;53.208;10.392;2022-09-01T17:02:44;20.70;1.00
10901;DHT22;5503;53.208;10.392;2022-09-01T17:05:20;20.60;1.00
10901;DHT22;5503;53.208;10.392;2022-09-01T17:08:01;20.60;1.00
10901;DHT22;5503;53.208;10.392;2022-09-01T17:10:40;20.50;1.00
10901;DHT22;5503;53.208;10.392;2022-09-01T17:13:18;20.50;1.00
10901;DHT22;5503;53.208;10.392;2022-09-01T17:16:08;20.40;1.00
10901;DHT22;5503;53.208;10.392;2022-09-01T17:18:41;20.40;1.00
10901;DHT22;5503;53.208;10.392;2022-09-01T17:21:20;20.40;1.00
10901;DHT22;5503;53.208;10.392;2022-09-01T17:23:54;20.40;1.00
10901;DHT22;5503;53.208;10.392;2022-09-01T17:26:25;20.30;1.00
10901;DHT22;5503;53.208;10.392;2022-09-01T17:28:54;20.30;1.00
10901;DHT22;5503;53.208;10.392;2022-09-01T17:31:44;20.20;1.00
10901;DHT22;5503;53.208;10.392;2022-09-01T17:34:34;20.30;1.00
10901;DHT22;5503;53.208;10.392;2022-09-01T17:37:13;20.20;1.00
10901;DHT22;5503;53.208;10.392;2022-09-01T17:39:51;20.10;1.00
10901;DHT22;5503;53.208;10.392;2022-09-01T17:42:26;20.20;1.00
10901;DHT22;5503;53.208;10.392;2022-09-01T17:45:06;20.10;1.00
10901;DHT22;5503;53.208;10.392;2022-09-01T17:47:45;18.90;1.00
10901;DHT22;5503;53.208;10.392;2022-09-01T17:50:19;20.00;1.00
10901;DHT22;5503;53.208;10.392;2022-09-01T17:52:54;19.90;1.00
10901;DHT22;5503;53.208;10.392;2022-09-01T17:55:38;20.00;1.00
10901;DHT22;5503;53.208;10.392;2022-09-01T17:58:14;19.90;1.00
10901;DHT22;5503;53.208;10.392;2022-09-01T18:00:52;19.80;1.00
10901;DHT22;5503;53.208;10.392;2022-09-01T18:03:32;19.80;1.00
10901;DHT22;5503;53.208;10.392;2022-09-01T18:06:16;19.70;1.00
10901;DHT22;5503;53.208;10.392;2022-09-01T18:08:49;19.60;1.00
10901;DHT22;5503;53.208;10.392;2022-09-01T18:11:22;19.60;1.00
10901;DHT22;5503;53.208;10.392;2022-09-01T18:13:54;19.50;1.00
10901;DHT22;5503;53.208;10.392;2022-09-01T18:16:27;19.40;1.00
10901;DHT22;5503;53.208;10.392;2022-09-01T18:19:00;19.20;1.00
10901;DHT22;5503;53.208;10.392;2022-09-01T18:21:33;19.20;1.00
10901;DHT22;5503;53.208;10.392;2022-09-01T18:24:12;19.10;1.00
10901;DHT22;5503;53.208;10.392;2022-09-01T18:26:42;19.10;1.00
10901;DHT22;5503;53.208;10.392;2022-09-01T18:29:13;16.60;1.00